Time;durP1;ratioP1;P1;durP2;ratioP2;P2;SDS_P1;SDS_P2;PMS_P1;PMS_P2;Temp;Humidity;BMP_temperature;BMP_pressure;BME280_temperature;BME280_humidity;BME280_pressure;Samples;Min_cycle;Max_cycle;Signal;HPM_P1;HPM_P2
2023/07/01 00:01:39;;;;;;;20.00;18.40;;;11.60;99.90;;;;;;4992200;28;20069;-73
2023/07/01 00:04:06;;;;;;;20.58;18.90;;;11.60;99.90;;;;;;4991668;28;20041;-72
2023/07/01 00:06:33;;;;;;;19.77;18.27;;;11.60;99.90;;;;;;4984386;28;20050;-73
2023/07/01 00:09:00;;;;;;;19.70;18.25;;;11.60;99.90;;;;;;4993215;28;20049;-73
2023/07/01 00:11:28;;;;;;;21.00;19.33;;;11.80;99.90;;;;;;4995119;28;20060;-73
2023/07/01 00:13:55;;;;;;;21.13;19.80;;;11.80;99.90;;;;;;4995510;28;20096;-73
2023/07/01 00:16:22;;;;;;;20.80;19.50;;;11.90;99.90;;;;;;4994015;28;20069;-74
2023/07/01 00:18:49;;;;;;;21.77;20.08;;;11.80;99.90;;;;;;4995348;28;20041;-73
2023/07/01 00:21:15;;;;;;;21.98;20.00;;;11.80;99.90;;;;;;4977318;28;20054;-73
2023/07/01 00:23:42;;;;;;;21.60;19.95;;;11.90;99.90;;;;;;4994281;28;20073;-74
2023/07/01 00:26:09;;;;;;;21.45;19.90;;;11.70;99.90;;;;;;4992410;28;20058;-73
2023/07/01 00:28:35;;;;;;;22.40;20.73;;;11.70;99.90;;;;;;4977272;28;20042;-74
2023/07/01 00:31:03;;;;;;;21.75;20.17;;;11.80;99.90;;;;;;4991028;28;20224;-74
2023/07/01 00:33:29;;;;;;;21.85;20.08;;;11.70;99.90;;;;;;4993593;28;20070;-73
2023/07/01 00:35:56;;;;;;;21.90;20.35;;;11.70;99.90;;;;;;4995384;28;20077;-72
2023/07/01 00:38:23;;;;;;;21.45;19.85;;;11.60;99.90;;;;;;4991887;28;20595;-73
2023/07/01 00:40:50;;;;;;;21.60;20.27;;;11.60;99.90;;;;;;4993454;28;20131;-73
2023/07/01 00:43:16;;;;;;;22.13;20.30;;;11.70;99.90;;;;;;4994876;28;20045;-73
2023/07/01 00:45:44;;;;;;;22.23;20.67;;;11.70;99.90;;;;;;4978473;28;20134;-72
2023/07/01 00:48:25;;;;;;;22.95;21.38;;;11.70;99.90;;;;;;4994886;28;20075;-72
2023/07/01 00:50:53;;;;;;;23.20;21.50;;;11.80;99.90;;;;;;4998770;28;20153;-73
2023/07/01 00:53:21;;;;;;;22.23;20.63;;;11.80;99.90;;;;;;5000686;28;20307;-73
2023/07/01 00:55:49;;;;;;;22.77;20.98;;;11.80;99.90;;;;;;4998172;28;20045;-73
2023/07/01 00:58:16;;;;;;;23.33;21.48;;;11.80;99.90;;;;;;4994051;28;20043;-73
2023/07/01 01:00:43;;;;;;;22.23;20.55;;;11.70;99.90;;;;;;4993797;28;20568;-73
2023/07/01 01:03:32;;;;;;;22.48;20.95;;;11.70;99.90;;;;;;4991653;28;20100;-72
2023/07/01 01:06:18;;;;;;;21.90;20.33;;;11.50;99.90;;;;;;4990796;28;20042;-72
2023/07/01 01:09:00;;;;;;;21.42;20.13;;;11.40;99.90;;;;;;5006766;28;20579;-73
2023/07/01 01:11:31;;;;;;;21.13;19.52;;;11.40;99.90;;;;;;4990324;28;20053;-73
2023/07/01 01:14:04;;;;;;;21.08;19.58;;;11.40;99.90;;;;;;4991717;28;20042;-72
2023/07/01 01:16:32;;;;;;;21.67;19.92;;;11.30;99.90;;;;;;4992765;28;20596;-73
2023/07/01 01:19:01;;;;;;;21.95;20.23;;;11.30;99.90;;;;;;4992774;28;20054;-73
2023/07/01 01:21:29;;;;;;;20.75;19.30;;;11.30;99.90;;;;;;4992115;28;20100;-74
2023/07/01 01:24:03;;;;;;;20.83;19.30;;;11.40;99.90;;;;;;4994885;28;20066;-75
2023/07/01 01:26:39;;;;;;;20.13;18.83;;;11.40;99.90;;;;;;4993730;28;20072;-75
2023/07/01 01:29:06;;;;;;;21.63;19.83;;;11.40;99.90;;;;;;4992322;28;20133;-76
2023/07/01 01:31:34;;;;;;;21.38;19.77;;;11.40;99.90;;;;;;4992706;28;20669;-75
2023/07/01 01:34:01;;;;;;;21.38;19.88;;;11.40;99.90;;;;;;4994533;28;20046;-75
2023/07/01 01:36:56;;;;;;;21.02;19.67;;;11.40;99.90;;;;;;4993725;28;20042;-75
2023/07/01 01:39:28;;;;;;;21.05;19.52;;;11.50;99.90;;;;;;4991125;28;20092;-74
2023/07/01 01:42:13;;;;;;;21.17;19.67;;;11.60;99.90;;;;;;5008641;28;20034;-74
2023/07/01 01:44:47;;;;;;;22.10;20.33;;;11.50;99.90;;;;;;4991503;28;20070;-75
2023/07/01 01:47:20;;;;;;;22.60;20.67;;;11.60;99.90;;;;;;4974866;28;20562;-76
2023/07/01 01:49:53;;;;;;;22.95;21.17;;;11.60;99.90;;;;;;4996844;28;20049;-73
2023/07/01 01:52:21;;;;;;;22.38;20.88;;;11.70;99.90;;;;;;4991771;28;20140;-74
2023/07/01 01:54:52;;;;;;;22.30;20.90;;;11.80;99.90;;;;;;4993775;28;20041;-72
2023/07/01 01:57:19;;;;;;;22.75;21.23;;;11.80;99.90;;;;;;4993032;28;20049;-74
2023/07/01 01:59:46;;;;;;;22.88;21.05;;;11.80;99.90;;;;;;4993798;28;20052;-73
2023/07/01 02:02:13;;;;;;;22.33;20.92;;;12.00;99.90;;;;;;4991905;28;20570;-73
2023/07/01 02:04:40;;;;;;;22.33;20.70;;;12.10;99.90;;;;;;4991207;28;21612;-73
2023/07/01 02:07:07;;;;;;;21.90;20.50;;;12.10;99.90;;;;;;4989419;28;20310;-72
2023/07/01 02:09:34;;;;;;;22.30;20.58;;;12.00;99.90;;;;;;4979282;28;20033;-74
2023/07/01 02:12:01;;;;;;;21.80;20.30;;;12.20;99.90;;;;;;4976892;28;20074;-72
2023/07/01 02:14:28;;;;;;;23.30;21.35;;;12.30;99.90;;;;;;4994376;28;20046;-72
2023/07/01 02:16:55;;;;;;;22.30;20.90;;;12.20;99.90;;;;;;4993259;28;20680;-72
2023/07/01 02:19:22;;;;;;;23.55;21.63;;;12.20;99.90;;;;;;4995796;28;20041;-75
2023/07/01 02:21:49;;;;;;;25.00;23.10;;;12.30;99.90;;;;;;4977277;28;20447;-75
2023/07/01 02:24:16;;;;;;;24.33;22.65;;;12.30;99.90;;;;;;4996844;28;20038;-72
2023/07/01 02:26:45;;;;;;;24.10;22.40;;;12.50;99.90;;;;;;4994136;28;20042;-73
2023/07/01 02:29:11;;;;;;;24.27;22.38;;;12.50;99.90;;;;;;4988758;28;20044;-72
2023/07/01 02:31:38;;;;;;;23.30;21.60;;;12.50;99.90;;;;;;4991305;28;20397;-73
2023/07/01 02:34:05;;;;;;;24.27;22.00;;;12.50;99.90;;;;;;4976225;28;20038;-74
2023/07/01 02:36:31;;;;;;;23.92;22.42;;;12.50;99.90;;;;;;4993414;28;20099;-73
2023/07/01 02:38:58;;;;;;;23.55;21.75;;;12.50;99.90;;;;;;4993078;28;20050;-72
2023/07/01 02:41:25;;;;;;;24.70;22.90;;;12.60;99.90;;;;;;4975918;28;20590;-72
2023/07/01 02:43:52;;;;;;;23.55;22.05;;;12.70;99.90;;;;;;4997286;28;20475;-73
2023/07/01 02:46:18;;;;;;;24.38;22.42;;;12.80;99.90;;;;;;4991779;28;20050;-73
2023/07/01 02:48:45;;;;;;;23.95;22.30;;;12.80;99.90;;;;;;4996224;28;20053;-73
2023/07/01 02:51:12;;;;;;;23.98;21.85;;;12.90;99.90;;;;;;4988601;28;20077;-73
2023/07/01 02:53:39;;;;;;;24.15;22.25;;;13.00;99.90;;;;;;4975357;28;20046;-74
2023/07/01 02:56:06;;;;;;;24.08;22.38;;;13.00;99.90;;;;;;4994674;28;20056;-72
2023/07/01 02:58:33;;;;;;;24.60;23.10;;;13.10;99.90;;;;;;4993558;28;20103;-72
2023/07/01 03:01:00;;;;;;;24.23;22.58;;;13.20;99.90;;;;;;4993904;28;20045;-73
2023/07/01 03:03:27;;;;;;;24.52;22.65;;;13.20;99.90;;;;;;4990880;28;20084;-73
2023/07/01 03:05:54;;;;;;;25.48;23.52;;;13.30;99.90;;;;;;4993334;28;21768;-74
2023/07/01 03:08:20;;;;;;;24.50;22.58;;;13.40;99.90;;;;;;4987332;28;20041;-73
2023/07/01 03:10:47;;;;;;;25.83;24.05;;;13.50;99.90;;;;;;4977543;28;20045;-72
2023/07/01 03:13:16;;;;;;;24.77;22.75;;;13.50;99.90;;;;;;4992404;28;20046;-72
2023/07/01 03:15:43;;;;;;;24.45;22.60;;;13.50;99.90;;;;;;4990811;28;20111;-73
2023/07/01 03:18:09;;;;;;;23.88;22.35;;;13.60;99.90;;;;;;4993681;28;20049;-75
2023/07/01 03:20:36;;;;;;;23.73;21.90;;;13.60;99.90;;;;;;4991733;28;20049;-74
2023/07/01 03:23:03;;;;;;;22.88;21.42;;;13.70;99.90;;;;;;4993255;28;20149;-73
2023/07/01 03:25:31;;;;;;;24.40;22.48;;;13.70;99.90;;;;;;4989595;28;21411;-73
2023/07/01 03:27:57;;;;;;;24.08;22.15;;;13.80;99.90;;;;;;4990959;28;20042;-73
2023/07/01 03:30:31;;;;;;;24.00;21.95;;;13.80;99.90;;;;;;4971398;28;20050;-73
2023/07/01 03:32:58;;;;;;;26.02;23.83;;;13.80;99.90;;;;;;4992007;28;20056;-73
2023/07/01 03:35:25;;;;;;;25.10;23.40;;;13.80;99.90;;;;;;4989442;28;20539;-73
2023/07/01 03:37:52;;;;;;;25.67;23.65;;;13.90;99.90;;;;;;4987616;28;20036;-73
2023/07/01 03:40:19;;;;;;;24.65;22.85;;;13.90;99.90;;;;;;4987804;28;20684;-73
2023/07/01 03:42:46;;;;;;;25.15;23.23;;;13.90;99.90;;;;;;4991357;28;20180;-73
2023/07/01 03:45:13;;;;;;;24.52;22.92;;;14.00;99.90;;;;;;4992378;28;20057;-72
2023/07/01 03:47:44;;;;;;;24.48;22.80;;;14.00;99.90;;;;;;4993521;28;20080;-73
2023/07/01 03:50:13;;;;;;;24.20;22.58;;;14.10;99.90;;;;;;4996308;28;20712;-72
2023/07/01 03:52:41;;;;;;;24.90;23.17;;;14.10;99.90;;;;;;4992344;28;20042;-74
2023/07/01 03:55:12;;;;;;;24.00;22.48;;;14.20;99.90;;;;;;4994269;28;20045;-72
2023/07/01 03:57:39;;;;;;;24.25;22.55;;;14.20;99.90;;;;;;4996279;28;20041;-73
2023/07/01 04:00:08;;;;;;;24.60;22.77;;;14.20;99.90;;;;;;4995729;28;20076;-74
2023/07/01 04:02:38;;;;;;;23.83;22.33;;;14.30;99.90;;;;;;4992628;28;20538;-72
2023/07/01 04:05:10;;;;;;;23.70;22.08;;;14.30;99.90;;;;;;4996630;28;20133;-73
2023/07/01 04:07:40;;;;;;;23.95;22.35;;;14.40;99.90;;;;;;4990423;28;20052;-72
2023/07/01 04:10:07;;;;;;;23.83;22.10;;;14.40;99.90;;;;;;4995516;28;20112;-73
2023/07/01 04:12:35;;;;;;;22.85;21.30;;;14.40;99.90;;;;;;4994253;28;20159;-73
2023/07/01 04:15:03;;;;;;;23.00;21.40;;;14.40;99.90;;;;;;4981018;28;20131;-72
2023/07/01 04:17:29;;;;;;;22.80;21.23;;;14.50;99.90;;;;;;4993667;28;20046;-74
2023/07/01 04:19:56;;;;;;;22.65;20.90;;;14.60;99.90;;;;;;4997040;28;20493;-73
2023/07/01 04:22:23;;;;;;;23.33;21.65;;;14.70;99.90;;;;;;4991514;28;20038;-75
2023/07/01 04:24:50;;;;;;;23.77;21.83;;;14.70;99.90;;;;;;4993982;28;20652;-75
2023/07/01 04:27:17;;;;;;;23.88;22.23;;;14.80;99.90;;;;;;4995845;28;20054;-75
2023/07/01 04:29:44;;;;;;;23.15;21.50;;;14.80;99.90;;;;;;4997161;28;20112;-76
2023/07/01 04:32:10;;;;;;;22.90;21.42;;;14.90;99.90;;;;;;4995800;28;20736;-75
2023/07/01 04:34:37;;;;;;;23.20;21.48;;;15.00;99.90;;;;;;4993709;28;20080;-75
2023/07/01 04:37:04;;;;;;;23.83;21.77;;;15.00;99.90;;;;;;4975370;28;20077;-76
2023/07/01 04:39:31;;;;;;;22.75;21.13;;;15.10;99.90;;;;;;4993701;28;20061;-75
2023/07/01 04:41:57;;;;;;;23.45;21.67;;;15.10;99.90;;;;;;4995043;28;20058;-76
2023/07/01 04:44:24;;;;;;;23.60;21.67;;;15.20;99.90;;;;;;4992592;28;20044;-75
2023/07/01 04:46:51;;;;;;;23.50;21.52;;;15.30;99.90;;;;;;4994305;28;20132;-75
2023/07/01 04:49:18;;;;;;;23.63;21.80;;;15.40;99.90;;;;;;4992439;28;20124;-75
2023/07/01 04:51:45;;;;;;;22.35;20.98;;;15.50;99.90;;;;;;4993220;28;20054;-75
2023/07/01 04:54:12;;;;;;;23.65;21.92;;;15.70;99.90;;;;;;4978124;28;20116;-76
2023/07/01 04:56:38;;;;;;;24.38;22.88;;;15.80;99.90;;;;;;4993502;28;20076;-75
2023/07/01 04:59:05;;;;;;;24.25;22.60;;;15.90;99.90;;;;;;4991823;28;20060;-75
2023/07/01 05:01:32;;;;;;;22.98;21.33;;;16.00;99.90;;;;;;4976213;28;20057;-76
2023/07/01 05:03:59;;;;;;;23.67;22.17;;;16.20;99.90;;;;;;4992372;28;20061;-75
2023/07/01 05:06:26;;;;;;;23.02;21.50;;;16.30;99.90;;;;;;4992885;28;20156;-75
2023/07/01 05:08:53;;;;;;;24.38;22.75;;;16.30;99.90;;;;;;4993802;28;20100;-76
2023/07/01 05:11:20;;;;;;;24.08;22.48;;;16.40;99.90;;;;;;4988840;28;20714;-73
2023/07/01 05:13:46;;;;;;;23.08;21.67;;;16.50;99.90;;;;;;4991719;28;20053;-73
2023/07/01 05:16:13;;;;;;;23.65;21.85;;;16.50;99.90;;;;;;4994012;28;20143;-74
2023/07/01 05:18:40;;;;;;;24.30;22.48;;;16.60;99.90;;;;;;4988335;28;20472;-75
2023/07/01 05:21:07;;;;;;;24.80;22.38;;;16.50;99.90;;;;;;4991709;28;20050;-75
2023/07/01 05:23:33;;;;;;;23.33;21.83;;;16.60;99.90;;;;;;4993990;28;20362;-73
2023/07/01 05:26:00;;;;;;;23.63;22.13;;;16.60;99.90;;;;;;4992582;28;20046;-72
2023/07/01 05:28:27;;;;;;;23.73;22.10;;;16.60;99.90;;;;;;4993542;28;20050;-76
2023/07/01 05:30:53;;;;;;;23.52;22.10;;;16.70;99.90;;;;;;4977394;28;20132;-73
2023/07/01 05:33:20;;;;;;;25.13;22.95;;;16.70;99.90;;;;;;4978832;28;20058;-74
2023/07/01 05:35:47;;;;;;;24.67;23.02;;;16.70;99.90;;;;;;4990060;28;20074;-75
2023/07/01 05:38:14;;;;;;;24.90;23.20;;;16.70;99.90;;;;;;4995345;28;20038;-73
2023/07/01 05:40:41;;;;;;;25.17;23.35;;;16.80;99.90;;;;;;4988833;28;21608;-74
2023/07/01 05:43:08;;;;;;;24.75;23.15;;;16.90;99.90;;;;;;4991606;28;20528;-73
2023/07/01 05:45:35;;;;;;;24.20;22.70;;;16.90;99.90;;;;;;4988574;28;20133;-73
2023/07/01 05:48:02;;;;;;;25.60;23.58;;;16.90;99.90;;;;;;4974519;28;20080;-72
2023/07/01 05:50:29;;;;;;;24.23;22.83;;;17.00;99.90;;;;;;4985303;28;21167;-74
2023/07/01 05:52:56;;;;;;;25.17;23.27;;;17.00;99.90;;;;;;4992419;28;20697;-73
2023/07/01 05:55:23;;;;;;;25.67;23.98;;;17.00;99.90;;;;;;4989924;28;20045;-72
2023/07/01 05:57:50;;;;;;;24.63;22.92;;;16.90;99.90;;;;;;4991690;28;20566;-73
2023/07/01 06:00:17;;;;;;;25.25;23.48;;;16.80;99.90;;;;;;4989336;28;20038;-73
2023/07/01 06:02:44;;;;;;;24.70;23.10;;;16.80;99.90;;;;;;4990179;28;20061;-71
2023/07/01 06:05:10;;;;;;;25.90;23.90;;;16.70;99.90;;;;;;4990018;28;20046;-73
2023/07/01 06:07:37;;;;;;;25.05;23.40;;;16.70;99.90;;;;;;4989510;28;20140;-75
2023/07/01 06:10:04;;;;;;;25.77;23.95;;;16.70;99.90;;;;;;4991188;28;23110;-76
2023/07/01 06:12:31;;;;;;;25.38;23.55;;;16.70;99.90;;;;;;4990041;28;20049;-76
2023/07/01 06:14:58;;;;;;;25.40;23.60;;;16.70;99.90;;;;;;4992507;28;20046;-77
2023/07/01 06:17:25;;;;;;;24.33;22.85;;;16.70;99.90;;;;;;4986322;28;20112;-75
2023/07/01 06:19:52;;;;;;;24.85;23.25;;;16.70;99.90;;;;;;4989877;28;20100;-75
2023/07/01 06:22:18;;;;;;;24.65;22.95;;;16.70;99.90;;;;;;4990271;28;20037;-76
2023/07/01 06:24:46;;;;;;;25.60;23.75;;;16.70;99.90;;;;;;4989242;28;20077;-75
2023/07/01 06:27:12;;;;;;;27.23;24.13;;;16.70;99.90;;;;;;4989696;28;20104;-76
2023/07/01 06:29:41;;;;;;;25.17;23.27;;;16.70;99.90;;;;;;4976302;28;20050;-75
2023/07/01 06:32:09;;;;;;;24.02;22.67;;;16.70;99.90;;;;;;4989068;28;20088;-75
2023/07/01 06:34:35;;;;;;;24.33;22.88;;;16.80;99.90;;;;;;4990942;28;20061;-73
2023/07/01 06:37:03;;;;;;;24.33;22.73;;;16.80;99.90;;;;;;4990928;28;20038;-75
2023/07/01 06:39:30;;;;;;;25.27;23.60;;;16.80;99.90;;;;;;4988781;28;20054;-74
2023/07/01 06:41:57;;;;;;;25.60;23.90;;;16.80;99.90;;;;;;4991440;28;20042;-74
2023/07/01 06:44:24;;;;;;;24.48;22.83;;;16.80;99.90;;;;;;4988111;28;20042;-72
2023/07/01 06:46:51;;;;;;;24.80;22.85;;;16.80;99.90;;;;;;4990180;28;20680;-73
2023/07/01 06:49:18;;;;;;;24.90;23.13;;;16.70;99.90;;;;;;4991869;28;20656;-73
2023/07/01 06:51:44;;;;;;;25.30;23.73;;;16.80;99.90;;;;;;4986824;28;20064;-73
2023/07/01 06:54:12;;;;;;;25.08;23.48;;;16.80;99.90;;;;;;4990428;28;20129;-72
2023/07/01 06:56:38;;;;;;;25.02;23.52;;;16.90;99.90;;;;;;4987955;28;20129;-75
2023/07/01 06:59:05;;;;;;;25.42;23.90;;;16.80;99.90;;;;;;4992120;28;20057;-75
2023/07/01 07:01:32;;;;;;;23.73;22.17;;;16.80;99.90;;;;;;4988565;28;20067;-75
2023/07/01 07:03:59;;;;;;;24.70;23.10;;;16.80;99.90;;;;;;4990862;28;20073;-76
2023/07/01 07:06:26;;;;;;;23.83;22.35;;;16.90;99.90;;;;;;4991957;28;20054;-72
2023/07/01 07:08:52;;;;;;;24.75;23.00;;;17.10;99.90;;;;;;4989680;28;20693;-72
2023/07/01 07:11:19;;;;;;;24.33;22.73;;;17.20;99.90;;;;;;4989830;28;20076;-73
2023/07/01 07:13:46;;;;;;;25.45;23.83;;;17.30;99.90;;;;;;4990256;28;20049;-73
2023/07/01 07:16:12;;;;;;;26.23;24.67;;;17.40;99.90;;;;;;4990425;28;20149;-73
2023/07/01 07:18:39;;;;;;;26.50;24.75;;;17.50;99.90;;;;;;4990110;28;20034;-73
2023/07/01 07:21:06;;;;;;;25.60;23.67;;;17.60;99.90;;;;;;4990245;28;20033;-72
2023/07/01 07:23:33;;;;;;;25.95;24.25;;;17.50;99.90;;;;;;4994596;28;20100;-72
2023/07/01 07:25:59;;;;;;;25.27;23.48;;;17.60;99.90;;;;;;4982228;28;20077;-73
2023/07/01 07:28:26;;;;;;;26.08;24.17;;;17.70;99.90;;;;;;5000140;28;20692;-73
2023/07/01 07:30:53;;;;;;;25.25;23.48;;;17.70;99.90;;;;;;4990466;28;20069;-74
2023/07/01 07:33:20;;;;;;;26.10;23.95;;;17.70;99.90;;;;;;4995157;28;20092;-74
2023/07/01 07:35:46;;;;;;;25.30;23.70;;;17.70;99.90;;;;;;4989961;28;20111;-73
2023/07/01 07:38:14;;;;;;;26.08;24.38;;;17.80;99.90;;;;;;4970961;28;20475;-73
2023/07/01 07:40:40;;;;;;;25.60;23.98;;;17.70;99.90;;;;;;4987424;28;20608;-75
2023/07/01 07:43:11;;;;;;;25.98;24.48;;;17.90;99.90;;;;;;4992260;28;20072;-73
2023/07/01 07:45:38;;;;;;;25.90;23.90;;;17.90;99.90;;;;;;4971848;28;20073;-75
2023/07/01 07:48:06;;;;;;;24.63;23.10;;;18.00;99.90;;;;;;4974125;28;20116;-74
2023/07/01 07:50:36;;;;;;;25.85;24.20;;;18.00;99.90;;;;;;4986127;28;20042;-75
2023/07/01 07:53:03;;;;;;;24.58;22.98;;;18.20;99.90;;;;;;4991073;28;20038;-75
2023/07/01 07:55:33;;;;;;;23.60;22.13;;;18.30;99.90;;;;;;4991375;28;20049;-73
2023/07/01 07:58:01;;;;;;;24.25;22.50;;;18.40;99.90;;;;;;4991501;28;20045;-76
2023/07/01 08:00:28;;;;;;;23.52;21.88;;;18.40;99.90;;;;;;4989292;28;20716;-76
2023/07/01 08:02:55;;;;;;;23.65;22.23;;;18.60;99.90;;;;;;4986679;28;20042;-74
2023/07/01 08:05:23;;;;;;;23.92;22.45;;;18.70;99.90;;;;;;4990187;28;20048;-74
2023/07/01 08:07:50;;;;;;;24.17;22.50;;;18.80;99.90;;;;;;4985128;28;21015;-74
2023/07/01 08:10:17;;;;;;;23.20;21.67;;;18.80;99.90;;;;;;4989722;28;20053;-74
2023/07/01 08:12:44;;;;;;;23.85;22.00;;;18.90;99.90;;;;;;4987808;28;20050;-74
2023/07/01 08:15:11;;;;;;;22.67;21.15;;;18.90;99.90;;;;;;4990391;28;20660;-74
2023/07/01 08:17:39;;;;;;;22.80;21.48;;;18.90;99.90;;;;;;4988468;28;20045;-76
2023/07/01 08:20:06;;;;;;;23.30;21.85;;;19.00;99.90;;;;;;4971809;28;20082;-77
2023/07/01 08:22:33;;;;;;;23.13;21.63;;;18.90;99.90;;;;;;4992857;28;20054;-77
2023/07/01 08:25:00;;;;;;;24.25;22.58;;;18.90;99.90;;;;;;4996726;28;20053;-77
2023/07/01 08:27:27;;;;;;;24.33;22.83;;;18.90;99.90;;;;;;4999808;28;20104;-77
2023/07/01 08:29:54;;;;;;;25.25;23.42;;;18.90;99.90;;;;;;4982448;28;20490;-76
2023/07/01 08:32:20;;;;;;;24.90;23.30;;;19.00;99.90;;;;;;4979367;28;20041;-75
2023/07/01 08:34:47;;;;;;;25.40;23.52;;;19.00;99.90;;;;;;4990663;28;20082;-75
2023/07/01 08:37:14;;;;;;;25.58;23.80;;;19.00;99.90;;;;;;4973833;28;20042;-76
2023/07/01 08:39:42;;;;;;;25.40;23.35;;;18.90;99.90;;;;;;4993324;28;20536;-75
2023/07/01 08:42:12;;;;;;;24.30;22.75;;;19.00;99.90;;;;;;4977935;28;20089;-74
2023/07/01 08:44:41;;;;;;;24.25;22.73;;;19.00;99.90;;;;;;5006355;28;20053;-73
2023/07/01 08:47:08;;;;;;;25.20;23.15;;;18.90;99.90;;;;;;4976920;28;20069;-74
2023/07/01 08:49:37;;;;;;;25.63;24.13;;;18.90;99.90;;;;;;4989510;28;20503;-76
2023/07/01 08:52:10;;;;;;;26.15;24.52;;;18.70;99.90;;;;;;4992161;28;20711;-76
2023/07/01 08:54:38;;;;;;;26.23;24.52;;;18.50;99.90;;;;;;4991545;28;20061;-76
2023/07/01 08:57:09;;;;;;;25.40;23.90;;;18.30;99.90;;;;;;4993506;28;20702;-77
2023/07/01 08:59:36;;;;;;;25.98;24.42;;;18.20;99.90;;;;;;4991977;28;20054;-76
2023/07/01 09:02:03;;;;;;;27.73;25.80;;;18.20;99.90;;;;;;4994679;28;20042;-76
2023/07/01 09:04:31;;;;;;;27.45;25.70;;;18.10;99.90;;;;;;4990647;28;20053;-74
2023/07/01 09:06:58;;;;;;;28.63;26.60;;;18.10;99.90;;;;;;4986499;28;20088;-74
2023/07/01 09:09:25;;;;;;;27.00;25.30;;;18.10;99.90;;;;;;4990411;28;20667;-75
2023/07/01 09:11:53;;;;;;;27.48;25.73;;;18.20;99.90;;;;;;4990860;28;20046;-75
2023/07/01 09:14:20;;;;;;;25.98;24.20;;;18.00;99.90;;;;;;4990715;28;20041;-75
2023/07/01 09:16:47;;;;;;;28.23;26.23;;;18.00;99.90;;;;;;4995827;28;20123;-74
2023/07/01 09:19:18;;;;;;;26.48;24.83;;;18.00;99.90;;;;;;4994040;28;20050;-74
2023/07/01 09:21:44;;;;;;;26.45;24.65;;;18.10;99.90;;;;;;4990137;28;20052;-75
2023/07/01 09:24:12;;;;;;;26.17;24.67;;;18.10;99.90;;;;;;4992100;28;20098;-74
2023/07/01 09:26:40;;;;;;;26.48;24.48;;;18.10;99.90;;;;;;4991176;28;20049;-74
2023/07/01 09:29:09;;;;;;;26.38;24.67;;;18.00;99.90;;;;;;4992152;28;20041;-74
2023/07/01 09:31:50;;;;;;;24.10;22.45;;;18.10;99.90;;;;;;4992693;28;20042;-74
2023/07/01 09:34:18;;;;;;;23.50;22.00;;;18.10;99.90;;;;;;4993489;28;20065;-75
2023/07/01 09:36:45;;;;;;;25.08;23.38;;;18.20;99.90;;;;;;4990130;28;20077;-74
2023/07/01 09:39:13;;;;;;;24.08;22.38;;;18.10;99.90;;;;;;4992026;28;20062;-74
2023/07/01 09:41:39;;;;;;;25.38;23.77;;;18.00;99.90;;;;;;4991288;28;20042;-74
2023/07/01 09:44:18;;;;;;;25.35;23.45;;;17.90;99.90;;;;;;4978031;28;20072;-75
2023/07/01 09:46:46;;;;;;;24.83;23.00;;;17.90;99.90;;;;;;4990106;28;20093;-75
2023/07/01 09:49:13;;;;;;;24.13;22.58;;;18.10;99.90;;;;;;4993337;28;20050;-74
2023/07/01 09:51:48;;;;;;;25.40;23.85;;;18.20;99.90;;;;;;4990830;28;20040;-75
2023/07/01 09:54:23;;;;;;;23.92;22.27;;;18.50;99.90;;;;;;4975989;28;20054;-75
2023/07/01 09:56:52;;;;;;;24.98;23.58;;;18.70;99.90;;;;;;4979340;28;20069;-75
2023/07/01 09:59:20;;;;;;;26.02;24.20;;;18.70;99.90;;;;;;4989586;28;20042;-74
2023/07/01 10:01:50;;;;;;;26.48;24.40;;;18.60;99.90;;;;;;4988066;28;20049;-76
2023/07/01 10:04:25;;;;;;;24.75;23.05;;;18.50;99.90;;;;;;4991564;28;21393;-75
2023/07/01 10:06:55;;;;;;;23.40;21.90;;;18.10;99.90;;;;;;4975530;28;20536;-74
2023/07/01 10:09:25;;;;;;;23.98;22.48;;;17.90;99.90;;;;;;4989309;28;20054;-74
2023/07/01 10:11:54;;;;;;;23.80;22.02;;;17.90;99.90;;;;;;4989099;28;21220;-74
2023/07/01 10:14:23;;;;;;;24.70;22.70;;;18.00;99.90;;;;;;4986252;28;20041;-75
2023/07/01 10:16:51;;;;;;;24.92;23.42;;;18.10;99.90;;;;;;4970901;28;20143;-74
2023/07/01 10:19:28;;;;;;;24.00;22.30;;;18.20;99.90;;;;;;4986194;28;21479;-75
2023/07/01 10:22:26;;;;;;;24.23;22.52;;;18.10;99.90;;;;;;4988385;28;20046;-74
2023/07/01 10:25:03;;;;;;;23.83;22.30;;;18.20;99.90;;;;;;4989706;28;20129;-74
2023/07/01 10:27:40;;;;;;;23.80;22.30;;;18.20;99.90;;;;;;4987582;28;20042;-75
2023/07/01 10:30:09;;;;;;;24.08;22.48;;;18.30;99.90;;;;;;4991653;28;20661;-75
2023/07/01 10:32:35;;;;;;;24.17;22.50;;;18.40;99.90;;;;;;4988962;28;20552;-75
2023/07/01 10:35:07;;;;;;;24.00;22.50;;;18.40;99.90;;;;;;4986694;28;20207;-75
2023/07/01 10:37:34;;;;;;;23.10;21.75;;;18.40;99.90;;;;;;4992644;28;20049;-76
2023/07/01 10:40:22;;;;;;;23.67;21.80;;;18.60;99.90;;;;;;4990732;28;20172;-75
2023/07/01 10:42:49;;;;;;;24.20;22.70;;;18.60;99.90;;;;;;4987863;28;20046;-75
2023/07/01 10:45:16;;;;;;;22.80;21.50;;;18.50;99.90;;;;;;4974919;28;20068;-76
2023/07/01 10:48:03;;;;;;;23.25;21.77;;;18.50;99.90;;;;;;4990421;28;20132;-75
2023/07/01 10:50:30;;;;;;;22.38;21.17;;;18.50;99.90;;;;;;4979107;28;20634;-75
2023/07/01 10:55:46;;;;;;;25.05;23.35;;;18.50;99.90;;;;;;4989541;28;20685;-75
2023/07/01 10:58:21;;;;;;;24.40;23.10;;;18.40;99.90;;;;;;4988979;28;20042;-75
2023/07/01 11:00:52;;;;;;;25.05;23.65;;;18.40;99.90;;;;;;4987652;28;20390;-75
2023/07/01 11:03:35;;;;;;;24.05;22.65;;;18.30;99.90;;;;;;4992887;28;20069;-75
2023/07/01 11:06:08;;;;;;;23.33;22.00;;;18.00;99.90;;;;;;4987487;28;20052;-75
2023/07/01 11:08:48;;;;;;;20.02;18.90;;;17.90;99.90;;;;;;4991571;28;20267;-75
2023/07/01 11:11:28;;;;;;;16.75;15.80;;;17.60;99.90;;;;;;4990600;28;20049;-75
2023/07/01 11:14:22;;;;;;;14.88;14.10;;;17.20;99.90;;;;;;4988811;28;20038;-74
2023/07/01 11:16:49;;;;;;;14.32;13.45;;;16.90;99.90;;;;;;4986348;28;20721;-74
2023/07/01 11:19:16;;;;;;;14.30;13.40;;;16.80;99.90;;;;;;4993071;28;20042;-75
2023/07/01 11:21:44;;;;;;;13.45;12.75;;;16.70;99.90;;;;;;4990860;28;20049;-74
2023/07/01 11:24:11;;;;;;;14.77;13.77;;;16.70;99.90;;;;;;4991630;28;20042;-75
2023/07/01 11:26:40;;;;;;;13.93;13.13;;;16.80;99.90;;;;;;4993935;28;20038;-75
2023/07/01 11:29:25;;;;;;;14.95;14.05;;;16.90;99.90;;;;;;4989635;28;20059;-75
2023/07/01 11:32:06;;;;;;;15.13;14.23;;;17.00;99.90;;;;;;4990663;28;20041;-75
2023/07/01 11:34:33;;;;;;;14.52;13.73;;;17.10;99.90;;;;;;4993231;28;20508;-74
2023/07/01 11:37:00;;;;;;;15.25;14.45;;;17.30;99.90;;;;;;4988192;28;20073;-75
2023/07/01 11:39:28;;;;;;;15.90;14.90;;;17.50;99.90;;;;;;4991585;28;20045;-74
2023/07/01 11:41:57;;;;;;;15.95;14.93;;;17.60;99.90;;;;;;4989634;28;20093;-75
2023/07/01 11:44:27;;;;;;;16.45;15.45;;;17.70;99.90;;;;;;4974932;28;20070;-75
2023/07/01 11:46:55;;;;;;;17.40;16.42;;;17.80;99.90;;;;;;4989784;28;20053;-75
2023/07/01 11:49:25;;;;;;;17.67;16.58;;;17.80;99.90;;;;;;4974842;28;20111;-75
2023/07/01 11:51:53;;;;;;;17.98;16.63;;;17.90;99.90;;;;;;4987915;28;20531;-75
2023/07/01 11:54:23;;;;;;;18.63;17.52;;;17.90;99.90;;;;;;4991496;28;20057;-75
2023/07/01 11:57:06;;;;;;;19.25;18.23;;;18.00;99.90;;;;;;4988537;28;20046;-73
2023/07/01 11:59:37;;;;;;;20.00;18.92;;;18.00;99.90;;;;;;5005232;28;20053;-72
2023/07/01 12:02:05;;;;;;;19.48;18.38;;;18.00;99.90;;;;;;4987559;28;20121;-71
2023/07/01 12:04:33;;;;;;;19.15;18.10;;;18.10;99.90;;;;;;4995612;28;20049;-72
2023/07/01 12:07:27;;;;;;;20.60;19.30;;;18.10;99.90;;;;;;4993684;28;20042;-72
2023/07/01 12:09:54;;;;;;;20.20;19.10;;;18.30;99.90;;;;;;4992358;28;20046;-73
2023/07/01 12:12:33;;;;;;;21.15;20.05;;;18.30;99.90;;;;;;4994107;28;20937;-72
2023/07/01 12:15:05;;;;;;;21.35;20.23;;;18.30;99.90;;;;;;4996864;28;20133;-74
2023/07/01 12:17:34;;;;;;;20.55;19.45;;;18.20;99.90;;;;;;4995621;28;20046;-74
2023/07/01 12:20:04;;;;;;;20.00;18.90;;;18.20;99.90;;;;;;4992547;28;20128;-72
2023/07/01 12:22:31;;;;;;;20.13;19.02;;;18.40;99.90;;;;;;4993310;28;20746;-71
2023/07/01 12:24:59;;;;;;;20.80;19.60;;;18.40;99.90;;;;;;4994022;28;20532;-74
2023/07/01 12:27:29;;;;;;;21.38;20.27;;;18.30;99.90;;;;;;4996495;28;20076;-75
2023/07/01 12:29:56;;;;;;;20.98;19.88;;;18.30;99.90;;;;;;4998042;28;20096;-74
2023/07/01 12:32:25;;;;;;;22.08;20.90;;;18.30;99.90;;;;;;4993651;28;20137;-74
2023/07/01 12:34:52;;;;;;;20.80;19.67;;;18.40;99.90;;;;;;4994007;28;20038;-74
2023/07/01 12:37:20;;;;;;;21.13;20.13;;;18.40;99.90;;;;;;4994679;28;20484;-74
2023/07/01 12:39:51;;;;;;;21.40;20.20;;;18.40;99.90;;;;;;4997673;28;20541;-74